首页
METAR-TAF:

METAR-TAF

机场 :

Luxeuil-les-Bains, 法国

纬度: 47-47N, 经度: 006-21E, 海拔: 278米

当前天气观测

该预报发布于25分钟前的00:30 UTC
风速7节,风向西
温度 9°C
湿度 87%
气压 1007 hPa
能见度10公里或以上
多云层高于4700英尺
阴天层高于6200英尺

METAR: LFSX 260030Z AUTO 26007KT 9999 BKN047 OVC062 09/07 Q1007

时间: 02:55 (00:55 UTC)

预报

该预报发布于16小时和55分钟前的08:00 UTC
预报有效从25日的 09点(UTC)到 26日的 09点(UTC)
风速10节,风向南转西南
能见度10公里或以上
多云层高于2000英尺
短暂存在
从 25日的 11点(UTC)到 25日的 18点(UTC)
风速15节,风向南转西南,有时为30节阵风
能見度: 3000
多云层高于2000英尺, 塔状积云.
阵雨
成为
从 25日的 18点(UTC)到 25日的 21点(UTC)
风速15节,风向西
能見度: 6000
多云层高于1400英尺
成为
从 26日的 00点(UTC)到 26日的 03点(UTC)
能见度10公里或以上

TAF: LFSX 250800Z 2509/2609 21010KT 9999 BKN020 TEMPO 2511/2518 21015G30KT 3000 SHRA BKN020TCU BECMG 2518/2521 27015KT 6000 RA BKN014 BECMG 2600/2603 9999 NSW

超过4000个机场的气象观测和天气预报(METAR&TAF报告)。

可查询的气象台以黄色和红色小点在地图上表示。

将鼠标移到小点上方,可查看气象台名称。

然后点击查看天气观测和预报。

如需切换地图:点击带黑十字的绿色按钮放大地图;点击带横线的绿色按钮缩小地图;或者点击绿色箭头查看邻近地区的地图。


METAR-TAF: